Time;durP1;ratioP1;P1;durP2;ratioP2;P2;SDS_P1;SDS_P2;PMS_P1;PMS_P2;Temp;Humidity;BMP_temperature;BMP_pressure;BME280_temperature;BME280_humidity;BME280_pressure;Samples;Min_cycle;Max_cycle;Signal;HPM_P1;HPM_P2
2023/10/23 00:00:42;;;;;;;6.65;3.38;;;14.20;77.10;;;;;;5058651;28;20025;-63
2023/10/23 00:03:07;;;;;;;6.45;3.88;;;14.30;77.20;;;;;;5040982;28;20031;-63
2023/10/23 00:05:34;;;;;;;10.13;4.05;;;14.20;77.30;;;;;;5058491;28;20100;-63
2023/10/23 00:08:00;;;;;;;6.32;3.42;;;14.20;77.30;;;;;;5040854;28;20115;-63
2023/10/23 00:10:26;;;;;;;7.05;3.45;;;14.20;77.30;;;;;;5058487;28;20067;-63
2023/10/23 00:12:52;;;;;;;6.72;3.50;;;14.20;77.40;;;;;;5058669;28;20377;-63
2023/10/23 00:15:18;;;;;;;6.85;3.50;;;14.20;77.40;;;;;;5058824;28;20036;-63
2023/10/23 00:17:44;;;;;;;5.05;3.40;;;14.20;77.40;;;;;;5058319;28;20029;-63
2023/10/23 00:20:11;;;;;;;6.38;3.53;;;14.10;77.40;;;;;;5058294;28;20029;-63
2023/10/23 00:22:39;;;;;;;6.55;3.30;;;14.10;77.40;;;;;;5058765;28;20057;-63
2023/10/23 00:25:07;;;;;;;6.63;3.20;;;14.10;77.50;;;;;;5058127;28;20044;-63
2023/10/23 00:27:33;;;;;;;4.97;2.88;;;14.00;77.30;;;;;;5058344;28;20464;-63
2023/10/23 00:30:00;;;;;;;5.75;2.90;;;14.10;77.50;;;;;;5058665;28;20100;-63
2023/10/23 00:32:29;;;;;;;6.22;2.95;;;14.00;77.50;;;;;;5058053;28;20017;-63
2023/10/23 00:34:55;;;;;;;4.50;2.95;;;14.00;77.50;;;;;;5058480;28;20174;-63
2023/10/23 00:37:21;;;;;;;5.72;3.03;;;14.00;77.60;;;;;;5057857;28;20128;-63
2023/10/23 00:39:47;;;;;;;6.25;3.30;;;14.00;77.60;;;;;;5040338;28;20452;-63
2023/10/23 00:42:13;;;;;;;6.32;3.38;;;14.00;77.70;;;;;;5057893;28;20039;-63
2023/10/23 00:44:46;;;;;;;6.40;3.25;;;14.10;77.80;;;;;;5057918;28;20029;-63
2023/10/23 00:47:27;;;;;;;6.22;3.10;;;14.00;77.70;;;;;;5056790;28;20033;-63
2023/10/23 00:50:03;;;;;;;6.25;3.10;;;14.00;77.60;;;;;;5058013;28;20017;-63
2023/10/23 00:52:29;;;;;;;4.90;3.38;;;14.10;77.60;;;;;;5058185;28;20095;-63
2023/10/23 00:54:58;;;;;;;6.03;3.50;;;14.10;77.60;;;;;;5057542;28;20029;-63
2023/10/23 00:57:24;;;;;;;6.25;3.35;;;14.10;77.60;;;;;;5057609;28;20025;-64
2023/10/23 01:04:47;;;;;;;7.70;4.28;;;14.00;77.70;;;;;;5057605;28;20025;-63
2023/10/23 01:07:13;;;;;;;7.32;3.70;;;14.00;77.70;;;;;;5040117;28;20389;-63
2023/10/23 01:09:39;;;;;;;5.85;3.95;;;14.00;77.80;;;;;;5057363;28;20025;-64
2023/10/23 01:12:06;;;;;;;8.00;3.90;;;14.00;77.60;;;;;;5057322;28;20033;-64
2023/10/23 01:14:32;;;;;;;6.05;4.05;;;14.00;77.60;;;;;;5057184;28;20079;-63
2023/10/23 01:16:58;;;;;;;4.97;3.72;;;13.90;77.50;;;;;;5057210;28;20021;-63
2023/10/23 01:19:24;;;;;;;6.90;3.80;;;13.90;77.60;;;;;;5057190;28;20040;-63
2023/10/23 01:21:50;;;;;;;6.07;3.90;;;13.90;77.60;;;;;;5057628;28;20130;-63
2023/10/23 01:24:22;;;;;;;5.30;3.42;;;13.90;77.70;;;;;;5057520;28;20029;-63
2023/10/23 01:26:47;;;;;;;6.30;3.60;;;13.80;77.70;;;;;;5056924;28;20020;-63
2023/10/23 01:29:18;;;;;;;5.32;3.92;;;13.80;77.70;;;;;;5057509;28;20028;-63
2023/10/23 01:31:44;;;;;;;7.75;3.40;;;13.80;77.80;;;;;;5056886;28;20112;-63
2023/10/23 01:34:10;;;;;;;6.30;3.65;;;13.80;77.80;;;;;;5056812;28;20112;-63
2023/10/23 01:36:37;;;;;;;6.00;3.65;;;13.70;77.80;;;;;;5056583;28;20244;-63
2023/10/23 01:39:04;;;;;;;6.80;3.70;;;13.80;77.90;;;;;;5039198;28;20033;-63
2023/10/23 01:41:30;;;;;;;7.75;4.03;;;13.80;78.00;;;;;;5056693;28;20021;-63
2023/10/23 01:43:56;;;;;;;6.85;3.72;;;13.70;78.10;;;;;;5057135;28;20032;-63
2023/10/23 01:46:22;;;;;;;5.60;3.80;;;13.70;78.00;;;;;;5057095;28;20025;-63
2023/10/23 01:48:48;;;;;;;8.00;3.70;;;13.60;78.00;;;;;;5057136;28;20332;-63
2023/10/23 01:51:14;;;;;;;6.35;4.28;;;13.60;77.80;;;;;;5056575;28;20017;-63
2023/10/23 01:53:40;;;;;;;5.60;3.60;;;13.60;78.20;;;;;;5056436;28;20021;-63
2023/10/23 01:56:09;;;;;;;7.10;3.85;;;13.50;78.20;;;;;;5056704;28;20017;-63
2023/10/23 01:58:35;;;;;;;7.20;3.75;;;13.50;78.20;;;;;;5056940;28;20053;-63
2023/10/23 02:01:02;;;;;;;7.25;3.60;;;13.40;78.00;;;;;;5055964;28;20381;-63
2023/10/23 02:03:30;;;;;;;6.22;3.70;;;13.40;78.00;;;;;;5056284;28;20116;-63
2023/10/23 02:05:56;;;;;;;5.85;4.03;;;13.40;78.10;;;;;;5038800;28;20029;-63
2023/10/23 02:08:23;;;;;;;7.50;3.70;;;13.40;78.30;;;;;;5056514;28;20100;-63
2023/10/23 02:10:53;;;;;;;7.85;4.78;;;13.40;78.50;;;;;;5056184;28;20063;-63
2023/10/23 02:13:19;;;;;;;8.50;4.45;;;13.40;78.40;;;;;;5056391;28;20498;-63
2023/10/23 02:15:45;;;;;;;6.47;3.90;;;13.40;78.50;;;;;;5039136;28;20446;-63
2023/10/23 02:18:11;;;;;;;6.35;4.30;;;13.40;78.30;;;;;;5056266;28;20029;-63
2023/10/23 02:20:37;;;;;;;8.52;4.15;;;13.40;78.50;;;;;;5055948;28;20025;-63
2023/10/23 02:23:08;;;;;;;5.07;3.90;;;13.40;78.60;;;;;;5056427;28;20025;-63
2023/10/23 02:25:37;;;;;;;8.27;4.32;;;13.40;78.40;;;;;;5055759;28;20024;-63
2023/10/23 02:28:03;;;;;;;6.53;4.05;;;13.40;78.50;;;;;;5055718;28;20438;-63
2023/10/23 02:30:29;;;;;;;5.93;3.95;;;13.40;78.60;;;;;;5054855;28;20350;-63
2023/10/23 02:32:56;;;;;;;7.05;4.18;;;13.40;78.70;;;;;;5055774;28;20028;-63
2023/10/23 02:35:21;;;;;;;7.60;3.88;;;13.40;78.70;;;;;;5055565;28;20021;-63
2023/10/23 02:37:49;;;;;;;6.53;4.10;;;13.40;78.60;;;;;;5055597;28;20032;-63
2023/10/23 02:40:19;;;;;;;6.10;3.75;;;13.40;78.60;;;;;;5055662;28;20183;-63
2023/10/23 02:42:45;;;;;;;5.53;3.67;;;13.40;78.60;;;;;;5055885;28;20453;-63
2023/10/23 02:45:13;;;;;;;5.30;3.50;;;13.40;78.60;;;;;;5055522;28;20048;-63
2023/10/23 02:47:41;;;;;;;6.22;3.97;;;13.40;78.60;;;;;;5055461;28;20168;-63
2023/10/23 02:50:07;;;;;;;4.95;3.40;;;13.40;78.60;;;;;;5037926;28;20078;-63
2023/10/23 02:52:34;;;;;;;5.13;3.63;;;13.30;78.60;;;;;;5055754;28;20029;-63
2023/10/23 02:55:06;;;;;;;4.57;3.60;;;13.30;78.60;;;;;;5055406;28;20021;-63
2023/10/23 02:57:32;;;;;;;5.57;3.55;;;13.30;78.50;;;;;;5055998;28;20024;-63
2023/10/23 03:00:01;;;;;;;4.25;3.45;;;13.20;78.70;;;;;;5055389;28;20021;-63
2023/10/23 03:04:52;;;;;;;5.55;4.00;;;13.20;78.40;;;;;;5055660;28;20025;-63
2023/10/23 03:07:19;;;;;;;7.10;3.80;;;13.10;78.50;;;;;;5055207;28;20387;-64
2023/10/23 03:09:44;;;;;;;6.20;4.15;;;13.20;78.30;;;;;;5055267;28;20345;-63
2023/10/23 03:12:13;;;;;;;5.70;3.65;;;13.10;78.50;;;;;;5055177;28;20017;-63
2023/10/23 03:14:39;;;;;;;6.70;3.85;;;13.10;78.50;;;;;;5055117;28;20025;-63
2023/10/23 03:17:05;;;;;;;6.78;3.83;;;13.10;78.40;;;;;;5055714;28;20354;-63
2023/10/23 03:19:31;;;;;;;5.30;3.45;;;13.00;78.40;;;;;;5055691;28;20036;-63
2023/10/23 03:22:10;;;;;;;6.57;4.20;;;13.00;78.50;;;;;;5055116;28;20028;-63
2023/10/23 03:24:36;;;;;;;7.30;4.00;;;13.00;78.30;;;;;;5055400;28;20029;-63
2023/10/23 03:27:02;;;;;;;6.93;3.90;;;12.90;78.40;;;;;;5055295;28;20100;-63
2023/10/23 03:29:28;;;;;;;7.00;3.70;;;12.90;78.60;;;;;;5055333;28;20496;-63
2023/10/23 03:31:54;;;;;;;6.70;3.70;;;12.90;78.60;;;;;;5055282;28;20033;-63
2023/10/23 03:34:20;;;;;;;6.05;4.10;;;12.90;78.70;;;;;;5055460;28;20323;-63
2023/10/23 03:36:51;;;;;;;8.40;4.18;;;12.90;78.70;;;;;;5055003;28;20061;-63
2023/10/23 03:39:17;;;;;;;6.75;3.88;;;12.90;78.70;;;;;;5054953;28;20064;-63
2023/10/23 03:41:43;;;;;;;6.70;3.78;;;12.90;78.70;;;;;;5055503;28;20065;-63
2023/10/23 03:44:12;;;;;;;5.85;4.13;;;12.90;78.70;;;;;;5055091;28;20018;-63
2023/10/23 03:46:38;;;;;;;6.75;3.78;;;12.80;78.70;;;;;;5054765;28;20037;-63
2023/10/23 03:49:10;;;;;;;6.68;3.97;;;12.80;78.80;;;;;;5055421;28;20024;-63
2023/10/23 03:51:39;;;;;;;6.70;4.15;;;12.80;78.60;;;;;;5055540;28;20341;-63
2023/10/23 03:54:05;;;;;;;8.18;4.20;;;12.80;78.70;;;;;;5054809;28;20017;-63
2023/10/23 03:56:31;;;;;;;6.60;3.75;;;12.80;78.70;;;;;;5054872;28;20036;-63
2023/10/23 03:58:59;;;;;;;6.80;4.28;;;12.80;78.60;;;;;;5037255;28;20029;-63
2023/10/23 04:01:25;;;;;;;5.53;3.78;;;12.80;78.70;;;;;;5054767;28;20021;-63
2023/10/23 04:03:51;;;;;;;8.73;4.55;;;12.80;78.90;;;;;;5054970;28;20450;-63
2023/10/23 04:06:17;;;;;;;4.75;3.50;;;12.80;79.10;;;;;;5054920;28;20033;-63
2023/10/23 04:08:45;;;;;;;7.22;4.60;;;12.80;79.30;;;;;;5054657;28;20067;-63
2023/10/23 04:11:14;;;;;;;5.55;3.92;;;12.80;79.30;;;;;;5054650;28;20100;-63
2023/10/23 04:13:40;;;;;;;6.32;4.00;;;12.90;79.30;;;;;;5054689;28;20024;-63
2023/10/23 04:16:10;;;;;;;7.55;4.43;;;12.90;79.30;;;;;;5055424;28;20367;-63
2023/10/23 04:18:36;;;;;;;5.65;4.05;;;12.90;79.70;;;;;;5054910;28;20378;-64
2023/10/23 04:21:07;;;;;;;6.72;3.95;;;12.90;79.50;;;;;;5054579;28;20032;-63
2023/10/23 04:23:34;;;;;;;5.13;3.80;;;12.90;79.40;;;;;;5054862;28;20067;-63
2023/10/23 04:26:01;;;;;;;8.27;3.95;;;12.90;79.50;;;;;;5056610;28;20021;-63
2023/10/23 04:28:27;;;;;;;6.60;4.35;;;12.90;79.50;;;;;;5058705;28;20431;-63
2023/10/23 04:30:55;;;;;;;5.78;4.00;;;12.90;79.50;;;;;;5058073;28;20029;-63
2023/10/23 04:33:22;;;;;;;5.90;3.80;;;13.00;79.40;;;;;;5058045;28;20438;-63
2023/10/23 04:35:55;;;;;;;6.50;4.05;;;13.00;79.40;;;;;;5057716;28;20045;-63
2023/10/23 04:38:24;;;;;;;4.45;3.65;;;13.00;79.30;;;;;;5058237;28;20053;-63
2023/10/23 04:40:53;;;;;;;6.38;3.90;;;13.00;79.30;;;;;;5057935;28;20123;-63
2023/10/23 04:43:20;;;;;;;4.93;3.75;;;13.00;79.40;;;;;;5040230;28;20025;-63
2023/10/23 04:45:48;;;;;;;6.47;4.10;;;13.00;79.40;;;;;;5058002;28;20529;-63
2023/10/23 04:48:16;;;;;;;4.20;3.50;;;13.00;79.30;;;;;;5057984;28;20039;-63
2023/10/23 04:50:42;;;;;;;5.13;3.60;;;12.90;79.30;;;;;;5057704;28;20122;-63
2023/10/23 04:53:08;;;;;;;6.90;3.92;;;12.90;79.50;;;;;;5057911;28;20361;-63
2023/10/23 04:55:39;;;;;;;5.05;3.78;;;12.90;79.50;;;;;;5040020;28;20021;-63
2023/10/23 04:58:12;;;;;;;6.30;4.07;;;12.90;79.40;;;;;;5057563;28;20109;-63
2023/10/23 05:00:39;;;;;;;6.50;3.90;;;12.90;79.40;;;;;;5058070;28;20071;-63
2023/10/23 05:03:11;;;;;;;5.97;4.15;;;12.90;79.30;;;;;;5057519;28;20021;-63
2023/10/23 05:05:49;;;;;;;5.07;3.90;;;12.90;79.30;;;;;;5057653;28;20033;-63
2023/10/23 05:08:18;;;;;;;5.25;3.75;;;12.90;79.30;;;;;;5057826;28;20025;-63
2023/10/23 05:10:44;;;;;;;7.65;4.30;;;12.90;79.20;;;;;;5057882;28;20063;-63
2023/10/23 05:13:10;;;;;;;8.45;4.20;;;12.90;79.20;;;;;;5057324;28;20028;-63
2023/10/23 05:15:42;;;;;;;6.93;4.13;;;12.90;79.20;;;;;;5057236;28;20025;-64
2023/10/23 05:18:08;;;;;;;7.97;4.05;;;12.90;79.10;;;;;;5057427;28;20037;-63
2023/10/23 05:20:34;;;;;;;7.53;4.57;;;12.90;79.20;;;;;;5057166;28;20025;-63
2023/10/23 05:23:03;;;;;;;8.75;4.45;;;12.90;79.20;;;;;;5039537;28;20029;-63
2023/10/23 05:25:31;;;;;;;6.25;4.00;;;12.90;79.20;;;;;;5057169;28;20029;-63
2023/10/23 05:28:03;;;;;;;7.15;4.63;;;12.80;79.20;;;;;;5039371;28;20465;-63
2023/10/23 05:30:32;;;;;;;9.18;4.72;;;12.80;79.30;;;;;;5057496;28;20049;-63
2023/10/23 05:33:00;;;;;;;9.18;5.13;;;12.80;79.40;;;;;;5056944;28;20028;-64
2023/10/23 05:35:27;;;;;;;7.43;4.93;;;12.90;79.30;;;;;;5056106;28;20021;-64
2023/10/23 05:37:52;;;;;;;8.13;4.32;;;12.90;79.40;;;;;;5056938;28;20032;-64
2023/10/23 05:40:19;;;;;;;6.90;4.72;;;12.90;79.40;;;;;;5057049;28;20132;-64
2023/10/23 05:42:47;;;;;;;6.47;4.28;;;12.90;79.40;;;;;;5056785;28;20087;-64
2023/10/23 05:45:16;;;;;;;7.88;4.57;;;12.90;79.30;;;;;;5045819;28;20033;-64
2023/10/23 05:47:42;;;;;;;8.55;4.18;;;12.90;79.40;;;;;;5037189;28;20030;-66
2023/10/23 05:50:08;;;;;;;7.30;4.53;;;12.90;79.40;;;;;;5037159;28;20040;-64
2023/10/23 05:52:36;;;;;;;11.32;4.50;;;12.90;79.40;;;;;;5036606;28;20045;-64
2023/10/23 05:55:04;;;;;;;7.45;4.30;;;12.90;79.50;;;;;;5036632;28;20021;-64
2023/10/23 05:57:31;;;;;;;7.45;4.32;;;12.80;79.50;;;;;;5019240;28;20040;-64
2023/10/23 05:59:58;;;;;;;9.65;4.20;;;12.80;79.40;;;;;;5036911;28;20053;-66
2023/10/23 06:02:25;;;;;;;9.77;4.38;;;12.90;79.30;;;;;;5035854;28;20049;-68
2023/10/23 06:04:51;;;;;;;9.40;4.80;;;12.90;79.30;;;;;;5036104;28;20029;-65
2023/10/23 06:07:16;;;;;;;9.55;5.15;;;12.90;79.30;;;;;;5036307;28;20033;-65
2023/10/23 06:09:45;;;;;;;7.13;4.88;;;12.90;79.40;;;;;;5036256;28;20021;-66
2023/10/23 06:12:11;;;;;;;9.02;5.07;;;12.90;79.40;;;;;;5036200;28;20045;-65
2023/10/23 06:14:37;;;;;;;9.63;5.22;;;12.90;79.40;;;;;;5036034;28;20439;-63
2023/10/23 06:17:04;;;;;;;8.85;5.20;;;12.90;79.40;;;;;;5036108;28;20454;-65
2023/10/23 06:19:33;;;;;;;9.02;5.18;;;12.90;79.50;;;;;;5018604;28;20033;-66
2023/10/23 06:21:59;;;;;;;8.52;4.75;;;12.90;79.60;;;;;;5018551;28;20442;-64
2023/10/23 06:24:26;;;;;;;8.32;4.80;;;13.00;79.80;;;;;;5035864;28;20048;-63
2023/10/23 06:26:52;;;;;;;8.88;4.53;;;13.10;79.80;;;;;;4986089;28;20402;-65
2023/10/23 06:29:17;;;;;;;8.85;4.15;;;13.30;79.90;;;;;;5036179;28;20464;-64
2023/10/23 06:31:43;;;;;;;7.55;4.43;;;13.40;79.90;;;;;;5035870;28;20075;-66
2023/10/23 06:34:12;;;;;;;8.52;3.90;;;13.50;79.80;;;;;;5035737;28;20026;-68
2023/10/23 06:36:42;;;;;;;8.20;4.75;;;13.70;79.60;;;;;;5035781;28;20077;-63
2023/10/23 06:39:08;;;;;;;8.40;4.13;;;13.90;79.40;;;;;;5035609;28;20459;-64
2023/10/23 06:41:41;;;;;;;7.03;4.30;;;14.00;79.30;;;;;;5035678;28;20060;-65
2023/10/23 06:44:07;;;;;;;9.27;4.77;;;14.20;79.00;;;;;;5035557;28;20083;-66
2023/10/23 06:46:34;;;;;;;7.70;4.50;;;14.30;78.70;;;;;;5035368;28;20336;-66
2023/10/23 06:49:00;;;;;;;9.70;5.20;;;14.40;78.40;;;;;;5035156;28;20402;-67
2023/10/23 06:51:25;;;;;;;10.35;5.20;;;14.50;78.50;;;;;;5035474;28;20462;-67
2023/10/23 06:53:52;;;;;;;9.55;5.13;;;14.60;78.40;;;;;;5035625;28;20067;-65
2023/10/23 06:56:18;;;;;;;9.30;4.70;;;14.90;78.40;;;;;;5035326;28;20451;-66
2023/10/23 06:58:44;;;;;;;7.63;4.70;;;15.10;78.10;;;;;;5035380;28;20048;-66
2023/10/23 07:01:10;;;;;;;9.32;5.00;;;15.40;77.80;;;;;;5035851;28;20032;-66
2023/10/23 07:03:37;;;;;;;6.90;4.47;;;15.70;77.40;;;;;;5035500;28;20100;-64
2023/10/23 07:06:06;;;;;;;7.05;4.47;;;16.00;76.70;;;;;;5035716;28;20427;-64
2023/10/23 07:08:33;;;;;;;9.30;6.18;;;16.20;76.10;;;;;;5035537;28;20328;-65
2023/10/23 07:10:59;;;;;;;12.18;6.00;;;16.40;75.90;;;;;;5035288;28;20096;-61
2023/10/23 07:13:25;;;;;;;9.93;4.78;;;16.70;75.50;;;;;;5035206;28;20029;-66
2023/10/23 07:15:51;;;;;;;8.50;4.70;;;16.90;75.00;;;;;;5035132;28;20025;-64
2023/10/23 07:18:18;;;;;;;7.45;4.20;;;17.20;74.60;;;;;;5035448;28;20086;-64
2023/10/23 07:20:58;;;;;;;9.95;4.55;;;17.40;74.10;;;;;;5035053;28;20037;-64
2023/10/23 07:23:26;;;;;;;7.45;4.13;;;17.50;73.60;;;;;;5035109;28;20105;-64
2023/10/23 07:26:03;;;;;;;4.38;3.67;;;17.70;73.20;;;;;;5034969;28;20071;-65
2023/10/23 07:28:29;;;;;;;7.28;4.25;;;17.90;72.90;;;;;;5017575;28;20044;-64
2023/10/23 07:30:55;;;;;;;6.57;3.92;;;18.00;72.70;;;;;;5035016;28;20478;-65
2023/10/23 07:33:21;;;;;;;7.80;4.47;;;18.10;72.50;;;;;;5034921;28;20045;-64
2023/10/23 07:35:47;;;;;;;9.90;4.88;;;18.20;72.30;;;;;;5034817;28;20084;-66
2023/10/23 07:38:13;;;;;;;9.27;5.07;;;18.40;72.20;;;;;;5035548;28;20029;-64
2023/10/23 07:40:43;;;;;;;10.60;5.53;;;18.50;71.90;;;;;;5034946;28;20062;-64
2023/10/23 07:43:10;;;;;;;7.85;4.28;;;18.50;71.30;;;;;;5034904;28;20481;-64
2023/10/23 07:45:39;;;;;;;9.55;4.43;;;18.60;71.30;;;;;;5034797;28;20513;-64
2023/10/23 07:48:05;;;;;;;6.35;3.80;;;18.60;71.10;;;;;;5034711;28;20155;-66
2023/10/23 07:50:35;;;;;;;7.32;3.40;;;18.70;70.80;;;;;;5034869;28;20104;-63
2023/10/23 07:53:01;;;;;;;7.68;3.35;;;18.70;70.80;;;;;;5034810;28;20355;-65
2023/10/23 07:55:27;;;;;;;11.02;3.40;;;18.80;70.60;;;;;;5017426;28;20026;-65
2023/10/23 07:57:54;;;;;;;8.05;3.40;;;18.80;70.60;;;;;;5035007;28;20030;-65
2023/10/23 08:00:20;;;;;;;8.05;4.07;;;18.90;70.50;;;;;;5037058;28;20030;-65
2023/10/23 08:02:46;;;;;;;9.15;4.10;;;18.90;70.20;;;;;;5039075;28;20481;-65
2023/10/23 08:05:15;;;;;;;7.75;4.22;;;18.90;69.90;;;;;;5038936;28;20064;-65
2023/10/23 08:07:41;;;;;;;6.85;4.43;;;18.90;70.10;;;;;;5038419;28;20486;-65
2023/10/23 08:10:15;;;;;;;9.13;3.95;;;19.00;70.30;;;;;;5039017;28;20078;-65
2023/10/23 08:12:41;;;;;;;9.25;4.70;;;19.10;70.50;;;;;;5038736;28;20026;-65
